Impacts METAR Board
IDs:

KIAH - Houston/Bush Intl, TX, US

Updated at: 0000 UTC 27 Apr 2018
Potential Impact None Slight Moderate High
Time 26/12Z 26/13Z 26/14Z 26/15Z 26/16Z 26/17Z 26/18Z 26/19Z 26/20Z 26/21Z 26/22Z 26/23Z 27/00Z
Temp54 56 59 63 66 69 72 73 75 76 77 76 74
Dewpt49 50 48 47 47 48 47 48 49 49 45 46 48
Altim30.03 30.05 30.05 30.05 30.05 30.03 30.01 29.99 29.96 29.94 29.92 29.92 29.92
VIS10 10 10 10 10 10 10 10 10 10 10 10 10
CIG-- -- -- -- -- -- -- -- -- -- -- -- --
CoverFEWFEWFEWFEWCLRCLRCLRCLRCLRCLRCLRFEWFEW
FltCatVFRVFRVFRVFRVFRVFRVFRVFRVFRVFRVFRVFRVFR
WX--------------------------
WDir3403303403503600360103101010360350
WSpd6 6 8 10 9 5 7 8 9 7 11 7 7
WGst-- -- -- -- 18 -- -- 15 -- -- 15 -- --
Raw hourly METARs
KIAH 261153Z 34006KT 10SM FEW060 FEW100 12/09 A3003 RMK AO2 SLP169 T01220094 10172 20122 53002
KIAH 261253Z 33006KT 10SM FEW100 13/10 A3005 RMK AO2 SLP175 T01330100
KIAH 261353Z COR 34008KT 10SM FEW100 15/09 A3005 RMK AO2 SLP176 T01500089
KIAH 261453Z 35010KT 10SM FEW100 17/08 A3005 RMK AO2 SLP177 T01720083 51007
KIAH 261553Z 36009G18KT 10SM CLR 19/08 A3005 RMK AO2 SLP175 T01890083
KIAH 261653Z VRB05KT 10SM CLR 21/09 A3003 RMK AO2 SLP170 T02060089
KIAH 261753Z COR 36007KT 10SM CLR 22/08 A3001 RMK AO2 SLP160 T02220083 10228 20122 58016
KIAH 261853Z 01008G15KT 10SM CLR 23/09 A2999 RMK AO2 SLP154 T02280089
KIAH 261953Z 31009KT 10SM CLR 24/09 A2996 RMK AO2 SLP146 T02390094
KIAH 262053Z 01007KT 320V040 10SM CLR 24/09 A2994 RMK AO2 SLP137 T02440094 58024
KIAH 262153Z 01011G15KT 10SM CLR 25/07 A2992 RMK AO2 SLP130 T02500072
KIAH 262253Z 36007KT 340V040 10SM FEW250 24/08 A2992 RMK AO2 SLP130 T02440078
KIAH 262353Z 35007KT 10SM FEW050 FEW250 23/09 A2992 RMK AO2 SLP131 T02330089 10250 20217 55006



Page loaded:  00:48 UTC  |   05:48 PM Pacific  |   06:48 PM Mountain  |   07:48 PM Central  |   08:48 PM Eastern

 

ADVISORIES

FORECASTS

FORECASTS

OBSERVATIONS

USER TOOLS

ABOUT US